sensor_id;sensor_type;location;lat;lon;timestamp;pressure;altitude;pressure_sealevel;temperature;humidity
23361;BME280;11852;50.082;18.554;2023-06-22T00:00:54;98771.5;;;20.99;85.81
23361;BME280;11852;50.082;18.554;2023-06-22T00:01:59;98769.5;;;21.13;85.35
23361;BME280;11852;50.082;18.554;2023-06-22T00:03:03;98766.5;;;21.13;85.35
23361;BME280;11852;50.082;18.554;2023-06-22T00:04:08;98766.5;;;21.06;85.67
23361;BME280;11852;50.082;18.554;2023-06-22T00:05:13;98767.51;;;21.1;85.54
23361;BME280;11852;50.082;18.554;2023-06-22T00:06:18;98767.01;;;21.09;85.56
23361;BME280;11852;50.082;18.554;2023-06-22T00:07:23;98771.5;;;21.01;85.85
23361;BME280;11852;50.082;18.554;2023-06-22T00:08:28;98772.5;;;21.06;85.63
23361;BME280;11852;50.082;18.554;2023-06-22T00:09:33;98773.5;;;21.11;85.46
23361;BME280;11852;50.082;18.554;2023-06-22T00:10:38;98771.5;;;21.04;85.79
23361;BME280;11852;50.082;18.554;2023-06-22T00:11:44;98769.5;;;20.98;85.96
23361;BME280;11852;50.082;18.554;2023-06-22T00:12:50;98769.99;;;20.94;86.04
23361;BME280;11852;50.082;18.554;2023-06-22T00:13:56;98766.5;;;21.06;85.54
23361;BME280;11852;50.082;18.554;2023-06-22T00:15:01;98769.99;;;21.17;85.19
23361;BME280;11852;50.082;18.554;2023-06-22T00:16:07;98772.5;;;21.28;84.93
23361;BME280;11852;50.082;18.554;2023-06-22T00:17:12;98773.5;;;21.22;85.04
23361;BME280;11852;50.082;18.554;2023-06-22T00:18:18;98772.5;;;21.2;84.98
23361;BME280;11852;50.082;18.554;2023-06-22T00:19:25;98771.0;;;21.2;84.99
23361;BME280;11852;50.082;18.554;2023-06-22T00:20:30;98766.0;;;21.01;85.76
23361;BME280;11852;50.082;18.554;2023-06-22T00:21:35;98763.5;;;21.06;85.46
23361;BME280;11852;50.082;18.554;2023-06-22T00:22:42;98759.5;;;21.15;85.06
23361;BME280;11852;50.082;18.554;2023-06-22T00:23:46;98760.0;;;21.22;84.82
23361;BME280;11852;50.082;18.554;2023-06-22T00:24:51;98757.99;;;21.0;85.72
23361;BME280;11852;50.082;18.554;2023-06-22T00:25:56;98756.5;;;20.83;86.24
23361;BME280;11852;50.082;18.554;2023-06-22T00:27:02;98758.0;;;20.86;86.06
23361;BME280;11852;50.082;18.554;2023-06-22T00:28:07;98758.5;;;20.83;86.09
23361;BME280;11852;50.082;18.554;2023-06-22T00:29:12;98759.5;;;20.88;85.9
23361;BME280;11852;50.082;18.554;2023-06-22T00:30:17;98757.49;;;20.92;85.74
23361;BME280;11852;50.082;18.554;2023-06-22T00:31:22;98756.99;;;20.9;85.88
23361;BME280;11852;50.082;18.554;2023-06-22T00:32:28;98758.5;;;21.04;85.47
23361;BME280;11852;50.082;18.554;2023-06-22T00:33:33;98757.5;;;20.88;86.13
23361;BME280;11852;50.082;18.554;2023-06-22T00:34:38;98756.5;;;20.9;85.9
23361;BME280;11852;50.082;18.554;2023-06-22T00:35:44;98760.0;;;20.89;86.04
23361;BME280;11852;50.082;18.554;2023-06-22T00:36:50;98762.0;;;20.84;86.24
23361;BME280;11852;50.082;18.554;2023-06-22T00:37:58;98765.0;;;20.82;86.28
23361;BME280;11852;50.082;18.554;2023-06-22T00:39:03;98766.0;;;20.78;86.42
23361;BME280;11852;50.082;18.554;2023-06-22T00:40:09;98767.0;;;20.89;85.98
23361;BME280;11852;50.082;18.554;2023-06-22T00:41:14;98768.0;;;21.02;85.49
23361;BME280;11852;50.082;18.554;2023-06-22T00:42:19;98768.0;;;20.98;85.71
23361;BME280;11852;50.082;18.554;2023-06-22T00:43:24;98768.0;;;20.9;86.03
23361;BME280;11852;50.082;18.554;2023-06-22T00:44:28;98771.0;;;20.91;85.99
23361;BME280;11852;50.082;18.554;2023-06-22T00:45:36;98775.5;;;21.07;85.4
23361;BME280;11852;50.082;18.554;2023-06-22T00:46:41;98776.0;;;20.97;85.87
23361;BME280;11852;50.082;18.554;2023-06-22T00:47:46;98774.5;;;20.95;85.9
23361;BME280;11852;50.082;18.554;2023-06-22T00:48:52;98776.0;;;20.88;86.13
23361;BME280;11852;50.082;18.554;2023-06-22T00:49:57;98775.5;;;20.94;85.96
23361;BME280;11852;50.082;18.554;2023-06-22T00:51:02;98774.0;;;20.9;86.16
23361;BME280;11852;50.082;18.554;2023-06-22T00:52:07;98765.5;;;21.01;85.76
23361;BME280;11852;50.082;18.554;2023-06-22T00:53:11;98766.0;;;20.88;86.35
23361;BME280;11852;50.082;18.554;2023-06-22T00:54:17;98764.0;;;20.97;85.89
23361;BME280;11852;50.082;18.554;2023-06-22T00:55:22;98764.5;;;20.91;86.22
23361;BME280;11852;50.082;18.554;2023-06-22T00:56:27;98759.5;;;20.89;86.18
23361;BME280;11852;50.082;18.554;2023-06-22T00:57:33;98760.5;;;20.89;86.18
23361;BME280;11852;50.082;18.554;2023-06-22T00:58:37;98758.0;;;20.96;85.84
23361;BME280;11852;50.082;18.554;2023-06-22T00:59:45;98756.0;;;21.01;85.67
23361;BME280;11852;50.082;18.554;2023-06-22T01:00:48;98759.5;;;20.91;86.1
23361;BME280;11852;50.082;18.554;2023-06-22T01:01:53;98759.0;;;21.01;85.6
23361;BME280;11852;50.082;18.554;2023-06-22T01:02:58;98759.0;;;21.09;85.39
23361;BME280;11852;50.082;18.554;2023-06-22T01:04:03;98763.5;;;21.08;85.41
23361;BME280;11852;50.082;18.554;2023-06-22T01:05:08;98769.0;;;21.03;85.63
23361;BME280;11852;50.082;18.554;2023-06-22T01:06:14;98771.0;;;21.04;85.51
23361;BME280;11852;50.082;18.554;2023-06-22T01:07:25;98772.5;;;21.15;84.94
23361;BME280;11852;50.082;18.554;2023-06-22T01:08:35;98768.0;;;21.19;85.09
23361;BME280;11852;50.082;18.554;2023-06-22T01:09:39;98764.5;;;21.15;85.26
23361;BME280;11852;50.082;18.554;2023-06-22T01:10:51;98763.0;;;21.06;85.49
23361;BME280;11852;50.082;18.554;2023-06-22T01:11:57;98760.5;;;21.02;85.7
23361;BME280;11852;50.082;18.554;2023-06-22T01:13:07;98759.5;;;20.94;85.96
23361;BME280;11852;50.082;18.554;2023-06-22T01:15:28;98755.51;;;20.84;86.23
23361;BME280;11852;50.082;18.554;2023-06-22T01:16:28;98756.0;;;21.04;85.42
23361;BME280;11852;50.082;18.554;2023-06-22T01:17:32;98761.0;;;21.08;85.32
23361;BME280;11852;50.082;18.554;2023-06-22T01:18:36;98761.0;;;21.06;85.4
23361;BME280;11852;50.082;18.554;2023-06-22T01:19:46;98760.0;;;21.03;85.46
23361;BME280;11852;50.082;18.554;2023-06-22T01:20:50;98755.01;;;20.98;85.72
23361;BME280;11852;50.082;18.554;2023-06-22T01:21:55;98754.0;;;20.92;85.9
23361;BME280;11852;50.082;18.554;2023-06-22T01:23:02;98755.0;;;20.98;85.65
23361;BME280;11852;50.082;18.554;2023-06-22T01:25:21;98757.49;;;20.99;85.57
23361;BME280;11852;50.082;18.554;2023-06-22T01:28:59;98760.5;;;20.85;86.1
23361;BME280;11852;50.082;18.554;2023-06-22T01:30:05;98759.5;;;20.88;85.94
23361;BME280;11852;50.082;18.554;2023-06-22T01:32:20;98763.5;;;20.98;85.43
23361;BME280;11852;50.082;18.554;2023-06-22T01:33:25;98767.0;;;20.99;85.44
23361;BME280;11852;50.082;18.554;2023-06-22T01:34:30;98769.49;;;21.03;85.24
23361;BME280;11852;50.082;18.554;2023-06-22T01:35:35;98763.5;;;21.1;84.96
23361;BME280;11852;50.082;18.554;2023-06-22T01:36:40;98762.0;;;21.0;85.28
23361;BME280;11852;50.082;18.554;2023-06-22T01:37:45;98764.0;;;21.05;85.1
23361;BME280;11852;50.082;18.554;2023-06-22T01:38:50;98766.0;;;21.08;84.97
23361;BME280;11852;50.082;18.554;2023-06-22T01:39:55;98769.0;;;21.17;84.65
23361;BME280;11852;50.082;18.554;2023-06-22T01:41:00;98770.49;;;21.1;84.93
23361;BME280;11852;50.082;18.554;2023-06-22T01:42:05;98769.0;;;21.05;85.04
23361;BME280;11852;50.082;18.554;2023-06-22T01:43:09;98771.5;;;21.1;84.76
23361;BME280;11852;50.082;18.554;2023-06-22T01:44:14;98771.5;;;21.05;84.84
23361;BME280;11852;50.082;18.554;2023-06-22T01:45:19;98772.0;;;21.08;84.74
23361;BME280;11852;50.082;18.554;2023-06-22T01:46:25;98772.0;;;21.12;84.64
23361;BME280;11852;50.082;18.554;2023-06-22T01:47:30;98771.0;;;21.14;84.58
23361;BME280;11852;50.082;18.554;2023-06-22T01:48:35;98773.5;;;21.15;84.49
23361;BME280;11852;50.082;18.554;2023-06-22T01:49:41;98774.0;;;21.09;84.7
23361;BME280;11852;50.082;18.554;2023-06-22T01:50:46;98776.5;;;21.17;84.46
23361;BME280;11852;50.082;18.554;2023-06-22T01:51:52;98776.0;;;21.17;84.52
23361;BME280;11852;50.082;18.554;2023-06-22T01:52:56;98777.5;;;21.07;84.68
23361;BME280;11852;50.082;18.554;2023-06-22T01:54:01;98773.5;;;20.86;85.49
23361;BME280;11852;50.082;18.554;2023-06-22T01:55:08;98776.5;;;20.83;85.49
23361;BME280;11852;50.082;18.554;2023-06-22T01:56:13;98778.5;;;20.72;85.85
23361;BME280;11852;50.082;18.554;2023-06-22T01:57:17;98779.0;;;20.8;85.49
23361;BME280;11852;50.082;18.554;2023-06-22T01:58:23;98780.5;;;20.8;85.58
23361;BME280;11852;50.082;18.554;2023-06-22T02:00:45;98782.0;;;20.74;85.83
23361;BME280;11852;50.082;18.554;2023-06-22T02:02:15;98782.5;;;20.72;85.86
23361;BME280;11852;50.082;18.554;2023-06-22T02:02:59;98782.99;;;20.87;85.24
23361;BME280;11852;50.082;18.554;2023-06-22T02:04:06;98784.5;;;20.92;85.14
23361;BME280;11852;50.082;18.554;2023-06-22T02:05:09;98781.5;;;21.01;84.86
23361;BME280;11852;50.082;18.554;2023-06-22T02:06:14;98784.5;;;20.94;85.16
23361;BME280;11852;50.082;18.554;2023-06-22T02:07:18;98785.5;;;20.97;85.07
23361;BME280;11852;50.082;18.554;2023-06-22T02:08:24;98782.49;;;21.01;84.96
23361;BME280;11852;50.082;18.554;2023-06-22T02:09:29;98783.5;;;20.98;85.06
23361;BME280;11852;50.082;18.554;2023-06-22T02:10:34;98784.0;;;20.88;85.49
23361;BME280;11852;50.082;18.554;2023-06-22T02:11:40;98786.0;;;20.95;85.17
23361;BME280;11852;50.082;18.554;2023-06-22T02:12:46;98786.0;;;20.99;84.98
23361;BME280;11852;50.082;18.554;2023-06-22T02:13:50;98791.0;;;20.94;85.18
23361;BME280;11852;50.082;18.554;2023-06-22T02:14:55;98788.5;;;21.0;84.99
23361;BME280;11852;50.082;18.554;2023-06-22T02:16:01;98790.5;;;20.93;85.26
23361;BME280;11852;50.082;18.554;2023-06-22T02:17:09;98793.0;;;20.8;85.65
23361;BME280;11852;50.082;18.554;2023-06-22T02:18:14;98796.5;;;20.75;85.87
23361;BME280;11852;50.082;18.554;2023-06-22T02:19:23;98797.0;;;20.77;85.68
23361;BME280;11852;50.082;18.554;2023-06-22T02:20:28;98801.0;;;20.84;85.35
23361;BME280;11852;50.082;18.554;2023-06-22T02:21:33;98801.0;;;20.83;85.35
23361;BME280;11852;50.082;18.554;2023-06-22T02:22:39;98805.01;;;20.87;85.22
23361;BME280;11852;50.082;18.554;2023-06-22T02:23:44;98808.0;;;20.94;84.92
23361;BME280;11852;50.082;18.554;2023-06-22T02:24:48;98807.0;;;20.9;84.99
23361;BME280;11852;50.082;18.554;2023-06-22T02:25:53;98805.01;;;20.87;85.08
23361;BME280;11852;50.082;18.554;2023-06-22T02:27:01;98805.5;;;20.77;85.38
23361;BME280;11852;50.082;18.554;2023-06-22T02:28:06;98811.0;;;20.84;85.13
23361;BME280;11852;50.082;18.554;2023-06-22T02:29:11;98807.99;;;20.85;84.95
23361;BME280;11852;50.082;18.554;2023-06-22T02:30:15;98809.0;;;20.92;84.87
23361;BME280;11852;50.082;18.554;2023-06-22T02:31:20;98810.5;;;20.95;84.72
23361;BME280;11852;50.082;18.554;2023-06-22T02:32:26;98812.5;;;20.97;84.68
23361;BME280;11852;50.082;18.554;2023-06-22T02:33:31;98815.0;;;20.98;84.66
23361;BME280;11852;50.082;18.554;2023-06-22T02:34:36;98819.0;;;21.0;84.6
23361;BME280;11852;50.082;18.554;2023-06-22T02:35:41;98823.5;;;21.03;84.54
23361;BME280;11852;50.082;18.554;2023-06-22T02:36:46;98825.5;;;21.01;84.51
23361;BME280;11852;50.082;18.554;2023-06-22T02:37:50;98825.5;;;20.99;84.54
23361;BME280;11852;50.082;18.554;2023-06-22T02:38:55;98827.5;;;21.01;84.54
23361;BME280;11852;50.082;18.554;2023-06-22T02:40:00;98825.0;;;21.01;84.51
23361;BME280;11852;50.082;18.554;2023-06-22T02:41:05;98826.5;;;21.04;84.44
23361;BME280;11852;50.082;18.554;2023-06-22T02:42:13;98828.5;;;21.01;84.46
23361;BME280;11852;50.082;18.554;2023-06-22T02:43:18;98827.0;;;21.01;84.52
23361;BME280;11852;50.082;18.554;2023-06-22T02:44:23;98827.5;;;20.99;84.49
23361;BME280;11852;50.082;18.554;2023-06-22T02:45:28;98830.5;;;20.92;84.71
23361;BME280;11852;50.082;18.554;2023-06-22T02:46:33;98830.01;;;20.92;84.74
23361;BME280;11852;50.082;18.554;2023-06-22T02:47:37;98835.5;;;20.93;84.72
23361;BME280;11852;50.082;18.554;2023-06-22T02:48:42;98833.5;;;20.97;84.61
23361;BME280;11852;50.082;18.554;2023-06-22T02:49:47;98833.5;;;20.95;84.74
23361;BME280;11852;50.082;18.554;2023-06-22T02:50:52;98834.0;;;20.91;84.84
23361;BME280;11852;50.082;18.554;2023-06-22T02:51:57;98831.5;;;20.7;85.65
23361;BME280;11852;50.082;18.554;2023-06-22T02:53:02;98834.5;;;20.7;85.61
23361;BME280;11852;50.082;18.554;2023-06-22T02:54:07;98836.5;;;20.83;85.16
23361;BME280;11852;50.082;18.554;2023-06-22T02:55:13;98839.0;;;20.88;85.01
23361;BME280;11852;50.082;18.554;2023-06-22T02:56:17;98835.5;;;20.89;84.99
23361;BME280;11852;50.082;18.554;2023-06-22T02:57:22;98834.5;;;20.94;84.93
23361;BME280;11852;50.082;18.554;2023-06-22T02:58:27;98831.0;;;20.98;84.85
23361;BME280;11852;50.082;18.554;2023-06-22T02:59:32;98831.5;;;21.02;84.76
23361;BME280;11852;50.082;18.554;2023-06-22T03:00:37;98834.0;;;21.08;84.63
23361;BME280;11852;50.082;18.554;2023-06-22T03:01:43;98834.0;;;21.08;84.6
23361;BME280;11852;50.082;18.554;2023-06-22T03:02:48;98837.5;;;21.11;84.53
23361;BME280;11852;50.082;18.554;2023-06-22T03:03:56;98837.5;;;21.05;84.62
23361;BME280;11852;50.082;18.554;2023-06-22T03:05:01;98836.0;;;21.08;84.59
23361;BME280;11852;50.082;18.554;2023-06-22T03:06:07;98841.0;;;21.1;84.49
23361;BME280;11852;50.082;18.554;2023-06-22T03:07:13;98842.01;;;21.11;84.47
23361;BME280;11852;50.082;18.554;2023-06-22T03:08:18;98848.0;;;21.13;84.35
23361;BME280;11852;50.082;18.554;2023-06-22T03:09:24;98846.5;;;21.17;84.36
23361;BME280;11852;50.082;18.554;2023-06-22T03:10:30;98847.0;;;21.17;84.31
23361;BME280;11852;50.082;18.554;2023-06-22T03:11:34;98848.5;;;21.2;84.31
23361;BME280;11852;50.082;18.554;2023-06-22T03:12:40;98847.0;;;21.22;84.31
23361;BME280;11852;50.082;18.554;2023-06-22T03:13:45;98844.0;;;21.22;84.29
23361;BME280;11852;50.082;18.554;2023-06-22T03:14:50;98841.5;;;21.2;84.32
23361;BME280;11852;50.082;18.554;2023-06-22T03:15:55;98840.5;;;21.22;84.32
23361;BME280;11852;50.082;18.554;2023-06-22T03:17:01;98841.0;;;21.24;84.29
23361;BME280;11852;50.082;18.554;2023-06-22T03:18:06;98841.5;;;21.23;84.35
23361;BME280;11852;50.082;18.554;2023-06-22T03:19:11;98842.5;;;21.23;84.34
23361;BME280;11852;50.082;18.554;2023-06-22T03:20:16;98840.0;;;21.24;84.3
23361;BME280;11852;50.082;18.554;2023-06-22T03:21:25;98839.5;;;21.23;84.35
23361;BME280;11852;50.082;18.554;2023-06-22T03:22:29;98837.5;;;21.28;84.25
23361;BME280;11852;50.082;18.554;2023-06-22T03:23:35;98837.5;;;21.29;84.3
23361;BME280;11852;50.082;18.554;2023-06-22T03:24:41;98835.0;;;21.26;84.35
23361;BME280;11852;50.082;18.554;2023-06-22T03:25:47;98832.0;;;21.23;84.49
23361;BME280;11852;50.082;18.554;2023-06-22T03:26:52;98833.5;;;21.27;84.33
23361;BME280;11852;50.082;18.554;2023-06-22T03:27:57;98835.5;;;21.34;84.22
23361;BME280;11852;50.082;18.554;2023-06-22T03:29:02;98832.99;;;21.38;84.21
23361;BME280;11852;50.082;18.554;2023-06-22T03:30:08;98833.0;;;21.4;84.21
23361;BME280;11852;50.082;18.554;2023-06-22T03:31:12;98835.5;;;21.43;84.1
23361;BME280;11852;50.082;18.554;2023-06-22T03:32:18;98836.5;;;21.43;84.1
23361;BME280;11852;50.082;18.554;2023-06-22T03:33:22;98833.5;;;21.43;84.15
23361;BME280;11852;50.082;18.554;2023-06-22T03:34:27;98830.5;;;21.44;84.2
23361;BME280;11852;50.082;18.554;2023-06-22T03:35:34;98832.0;;;21.48;84.15
23361;BME280;11852;50.082;18.554;2023-06-22T03:36:39;98831.01;;;21.49;84.04
23361;BME280;11852;50.082;18.554;2023-06-22T03:37:45;98829.0;;;21.51;84.07
23361;BME280;11852;50.082;18.554;2023-06-22T03:38:51;98828.5;;;21.51;84.08
23361;BME280;11852;50.082;18.554;2023-06-22T03:39:55;98830.01;;;21.53;84.04
23361;BME280;11852;50.082;18.554;2023-06-22T03:41:01;98829.51;;;21.55;84.07
23361;BME280;11852;50.082;18.554;2023-06-22T03:42:08;98833.5;;;21.56;84.03
23361;BME280;11852;50.082;18.554;2023-06-22T03:43:13;98839.0;;;21.59;84.02
23361;BME280;11852;50.082;18.554;2023-06-22T03:44:17;98838.0;;;21.6;84.04
23361;BME280;11852;50.082;18.554;2023-06-22T03:45:23;98835.5;;;21.64;83.96
23361;BME280;11852;50.082;18.554;2023-06-22T03:46:29;98838.0;;;21.62;84.06
23361;BME280;11852;50.082;18.554;2023-06-22T03:47:35;98842.01;;;21.66;83.99
23361;BME280;11852;50.082;18.554;2023-06-22T03:48:41;98841.5;;;21.67;83.99
23361;BME280;11852;50.082;18.554;2023-06-22T03:49:46;98843.01;;;21.68;84.01
23361;BME280;11852;50.082;18.554;2023-06-22T03:50:50;98844.99;;;21.68;84.04
23361;BME280;11852;50.082;18.554;2023-06-22T03:51:55;98844.49;;;21.67;84.06
23361;BME280;11852;50.082;18.554;2023-06-22T03:53:00;98846.0;;;21.69;84.04
23361;BME280;11852;50.082;18.554;2023-06-22T03:54:05;98845.0;;;21.7;84.07
23361;BME280;11852;50.082;18.554;2023-06-22T03:55:10;98842.51;;;21.7;84.12
23361;BME280;11852;50.082;18.554;2023-06-22T03:56:16;98842.0;;;21.72;84.13
23361;BME280;11852;50.082;18.554;2023-06-22T03:57:23;98844.0;;;21.73;84.12
23361;BME280;11852;50.082;18.554;2023-06-22T03:58:28;98847.0;;;21.74;84.1
23361;BME280;11852;50.082;18.554;2023-06-22T03:59:32;98847.5;;;21.77;84.11
23361;BME280;11852;50.082;18.554;2023-06-22T04:00:37;98847.0;;;21.77;84.12
23361;BME280;11852;50.082;18.554;2023-06-22T04:01:42;98847.0;;;21.79;84.13
23361;BME280;11852;50.082;18.554;2023-06-22T04:02:48;98846.0;;;21.8;84.15
23361;BME280;11852;50.082;18.554;2023-06-22T04:03:56;98847.0;;;21.81;84.19
23361;BME280;11852;50.082;18.554;2023-06-22T04:05:02;98848.5;;;21.82;84.21
23361;BME280;11852;50.082;18.554;2023-06-22T04:06:07;98853.0;;;21.84;84.21
23361;BME280;11852;50.082;18.554;2023-06-22T04:07:12;98857.49;;;21.81;84.32
23361;BME280;11852;50.082;18.554;2023-06-22T04:08:18;98863.0;;;21.83;84.34
23361;BME280;11852;50.082;18.554;2023-06-22T04:09:24;98864.5;;;21.83;84.31
23361;BME280;11852;50.082;18.554;2023-06-22T04:10:30;98862.5;;;21.85;84.29
23361;BME280;11852;50.082;18.554;2023-06-22T04:11:37;98862.0;;;21.88;84.32
23361;BME280;11852;50.082;18.554;2023-06-22T04:12:43;98865.0;;;21.83;84.43
23361;BME280;11852;50.082;18.554;2023-06-22T04:13:49;98864.5;;;21.88;84.43
23361;BME280;11852;50.082;18.554;2023-06-22T04:14:53;98865.5;;;21.91;84.4
23361;BME280;11852;50.082;18.554;2023-06-22T04:15:58;98868.5;;;21.94;84.4
23361;BME280;11852;50.082;18.554;2023-06-22T04:17:04;98872.5;;;21.97;84.4
23361;BME280;11852;50.082;18.554;2023-06-22T04:18:09;98871.5;;;21.96;84.47
23361;BME280;11852;50.082;18.554;2023-06-22T04:19:14;98875.0;;;22.0;84.43
23361;BME280;11852;50.082;18.554;2023-06-22T04:20:19;98874.0;;;22.02;84.44
23361;BME280;11852;50.082;18.554;2023-06-22T04:21:26;98876.0;;;22.01;84.58
23361;BME280;11852;50.082;18.554;2023-06-22T04:22:32;98877.0;;;21.97;84.9
23361;BME280;11852;50.082;18.554;2023-06-22T04:23:38;98876.5;;;22.04;84.69
23361;BME280;11852;50.082;18.554;2023-06-22T04:24:43;98878.0;;;22.06;84.69
23361;BME280;11852;50.082;18.554;2023-06-22T04:25:47;98875.5;;;22.08;84.71
23361;BME280;11852;50.082;18.554;2023-06-22T04:26:52;98875.5;;;22.13;84.63
23361;BME280;11852;50.082;18.554;2023-06-22T04:27:57;98874.5;;;22.18;84.54
23361;BME280;11852;50.082;18.554;2023-06-22T04:29:05;98875.5;;;22.23;84.48
23361;BME280;11852;50.082;18.554;2023-06-22T04:30:10;98882.0;;;22.26;84.53
23361;BME280;11852;50.082;18.554;2023-06-22T04:31:15;98879.51;;;22.3;84.5
23361;BME280;11852;50.082;18.554;2023-06-22T04:32:20;98879.0;;;22.23;84.83
23361;BME280;11852;50.082;18.554;2023-06-22T04:33:25;98881.5;;;22.2;84.92
23361;BME280;11852;50.082;18.554;2023-06-22T04:34:31;98878.5;;;22.24;84.74
23361;BME280;11852;50.082;18.554;2023-06-22T04:35:38;98875.5;;;22.28;84.76
23361;BME280;11852;50.082;18.554;2023-06-22T04:36:43;98878.0;;;22.36;84.65
23361;BME280;11852;50.082;18.554;2023-06-22T04:37:49;98877.5;;;22.42;84.57
23361;BME280;11852;50.082;18.554;2023-06-22T04:38:54;98877.0;;;22.45;84.57
23361;BME280;11852;50.082;18.554;2023-06-22T04:39:59;98879.0;;;22.45;84.57
23361;BME280;11852;50.082;18.554;2023-06-22T04:41:04;98878.5;;;22.5;84.51
23361;BME280;11852;50.082;18.554;2023-06-22T04:42:09;98878.5;;;22.45;84.71
23361;BME280;11852;50.082;18.554;2023-06-22T04:43:14;98879.0;;;22.48;84.65
23361;BME280;11852;50.082;18.554;2023-06-22T04:44:24;98876.0;;;22.53;84.6
23361;BME280;11852;50.082;18.554;2023-06-22T04:45:32;98877.0;;;22.58;84.56
23361;BME280;11852;50.082;18.554;2023-06-22T04:46:36;98879.0;;;22.61;84.51
23361;BME280;11852;50.082;18.554;2023-06-22T04:47:41;98884.0;;;22.58;84.68
23361;BME280;11852;50.082;18.554;2023-06-22T04:48:46;98882.99;;;22.64;84.54
23361;BME280;11852;50.082;18.554;2023-06-22T04:49:51;98884.0;;;22.69;84.56
23361;BME280;11852;50.082;18.554;2023-06-22T04:50:56;98885.0;;;22.75;84.51
23361;BME280;11852;50.082;18.554;2023-06-22T04:52:01;98884.5;;;22.81;84.35
23361;BME280;11852;50.082;18.554;2023-06-22T04:53:05;98884.0;;;22.79;84.68
23361;BME280;11852;50.082;18.554;2023-06-22T04:54:10;98886.5;;;22.78;84.76
23361;BME280;11852;50.082;18.554;2023-06-22T04:55:19;98887.5;;;22.83;84.58
23361;BME280;11852;50.082;18.554;2023-06-22T04:56:24;98887.5;;;22.83;84.69
23361;BME280;11852;50.082;18.554;2023-06-22T04:57:32;98888.5;;;22.85;84.72
23361;BME280;11852;50.082;18.554;2023-06-22T04:58:37;98890.0;;;22.9;84.6
23361;BME280;11852;50.082;18.554;2023-06-22T04:59:43;98895.49;;;22.95;84.54
23361;BME280;11852;50.082;18.554;2023-06-22T05:00:48;98896.0;;;22.99;84.58
23361;BME280;11852;50.082;18.554;2023-06-22T05:01:59;98899.5;;;23.02;84.58
23361;BME280;11852;50.082;18.554;2023-06-22T05:03:02;98899.5;;;22.97;84.85
23361;BME280;11852;50.082;18.554;2023-06-22T05:04:07;98901.0;;;23.02;84.63
23361;BME280;11852;50.082;18.554;2023-06-22T05:05:13;98902.0;;;23.0;84.61
23361;BME280;11852;50.082;18.554;2023-06-22T05:06:18;98903.5;;;23.06;84.51
23361;BME280;11852;50.082;18.554;2023-06-22T05:07:23;98907.0;;;23.11;84.42
23361;BME280;11852;50.082;18.554;2023-06-22T05:08:28;98906.5;;;23.16;84.43
23361;BME280;11852;50.082;18.554;2023-06-22T05:09:33;98906.5;;;23.19;84.36
23361;BME280;11852;50.082;18.554;2023-06-22T05:10:38;98909.0;;;23.15;84.51
23361;BME280;11852;50.082;18.554;2023-06-22T05:11:43;98907.0;;;23.11;84.6
23361;BME280;11852;50.082;18.554;2023-06-22T05:12:47;98907.99;;;23.16;84.55
23361;BME280;11852;50.082;18.554;2023-06-22T05:13:52;98910.5;;;23.01;84.86
23361;BME280;11852;50.082;18.554;2023-06-22T05:14:58;98913.0;;;23.08;84.51
23361;BME280;11852;50.082;18.554;2023-06-22T05:16:03;98913.0;;;23.16;84.6
23361;BME280;11852;50.082;18.554;2023-06-22T05:17:08;98909.0;;;23.32;84.33
23361;BME280;11852;50.082;18.554;2023-06-22T05:18:12;98907.0;;;23.32;84.43
23361;BME280;11852;50.082;18.554;2023-06-22T05:19:17;98907.5;;;23.36;84.37
23361;BME280;11852;50.082;18.554;2023-06-22T05:20:22;98909.0;;;23.47;84.33
23361;BME280;11852;50.082;18.554;2023-06-22T05:21:27;98907.49;;;23.53;84.16
23361;BME280;11852;50.082;18.554;2023-06-22T05:22:32;98905.01;;;23.56;84.07
23361;BME280;11852;50.082;18.554;2023-06-22T05:23:37;98901.0;;;23.59;84.11
23361;BME280;11852;50.082;18.554;2023-06-22T05:24:43;98903.0;;;23.63;84.08
23361;BME280;11852;50.082;18.554;2023-06-22T05:25:48;98902.5;;;23.61;84.1
23361;BME280;11852;50.082;18.554;2023-06-22T05:26:53;98901.0;;;23.59;84.24
23361;BME280;11852;50.082;18.554;2023-06-22T05:27:58;98901.5;;;23.63;84.01
23361;BME280;11852;50.082;18.554;2023-06-22T05:29:03;98903.5;;;23.6;84.13
23361;BME280;11852;50.082;18.554;2023-06-22T05:30:08;98906.0;;;23.59;84.08
23361;BME280;11852;50.082;18.554;2023-06-22T05:31:14;98905.01;;;23.56;83.46
23361;BME280;11852;50.082;18.554;2023-06-22T05:32:18;98910.5;;;23.6;83.11
23361;BME280;11852;50.082;18.554;2023-06-22T05:33:23;98914.5;;;23.69;82.66
23361;BME280;11852;50.082;18.554;2023-06-22T05:34:28;98915.5;;;23.46;83.75
23361;BME280;11852;50.082;18.554;2023-06-22T05:35:33;98913.0;;;23.6;83.18
23361;BME280;11852;50.082;18.554;2023-06-22T05:36:38;98915.5;;;23.73;83.03
23361;BME280;11852;50.082;18.554;2023-06-22T05:37:43;98913.5;;;23.8;83.11
23361;BME280;11852;50.082;18.554;2023-06-22T05:38:49;98915.5;;;23.74;83.39
23361;BME280;11852;50.082;18.554;2023-06-22T05:39:55;98910.5;;;23.69;83.4
23361;BME280;11852;50.082;18.554;2023-06-22T05:41:00;98910.0;;;23.61;83.75
23361;BME280;11852;50.082;18.554;2023-06-22T05:42:05;98910.0;;;23.28;84.94
23361;BME280;11852;50.082;18.554;2023-06-22T05:43:11;98907.0;;;23.12;85.13
23361;BME280;11852;50.082;18.554;2023-06-22T05:44:16;98907.5;;;23.23;84.71
23361;BME280;11852;50.082;18.554;2023-06-22T05:45:21;98909.5;;;23.33;84.04
23361;BME280;11852;50.082;18.554;2023-06-22T05:46:28;98908.0;;;23.48;82.96
23361;BME280;11852;50.082;18.554;2023-06-22T05:47:33;98904.51;;;23.8;82.49
23361;BME280;11852;50.082;18.554;2023-06-22T05:48:38;98906.5;;;23.56;83.59
23361;BME280;11852;50.082;18.554;2023-06-22T05:49:44;98902.5;;;23.48;83.82
23361;BME280;11852;50.082;18.554;2023-06-22T05:50:49;98902.5;;;23.65;82.9
23361;BME280;11852;50.082;18.554;2023-06-22T05:51:54;98905.01;;;23.67;82.81
23361;BME280;11852;50.082;18.554;2023-06-22T05:52:58;98903.0;;;23.74;82.58
23361;BME280;11852;50.082;18.554;2023-06-22T05:54:03;98905.01;;;23.92;81.9
23361;BME280;11852;50.082;18.554;2023-06-22T05:55:08;98904.51;;;23.99;81.96